Time;durP1;ratioP1;P1;durP2;ratioP2;P2;SDS_P1;SDS_P2;PMS_P1;PMS_P2;Temp;Humidity;BMP_temperature;BMP_pressure;BME280_temperature;BME280_humidity;BME280_pressure;Samples;Min_cycle;Max_cycle;Signal;HPM_P1;HPM_P2
2023/07/27 00:01:21;;;;;;;6.30;4.20;;;;;;;14.76;88.66;99947.89;79584;280;3011475;-75
2023/07/27 00:03:57;;;;;;;4.10;3.30;;;;;;;14.78;88.71;99947.06;79601;280;3011559;-72
2023/07/27 00:06:34;;;;;;;3.40;3.10;;;;;;;14.75;88.56;99951.27;79535;280;3011544;-72
2023/07/27 00:09:09;;;;;;;5.50;3.00;;;;;;;14.75;88.82;99951.99;78834;280;3028047;-74
2023/07/27 00:11:45;;;;;;;5.90;3.30;;;;;;;14.74;88.74;99951.89;79557;280;3011503;-73
2023/07/27 00:14:22;;;;;;;3.50;2.50;;;;;;;14.72;88.81;99953.56;79502;280;3012807;-73
2023/07/27 00:16:58;;;;;;;4.40;2.90;;;;;;;14.71;88.88;99953.98;78832;280;3028311;-73
2023/07/27 00:19:33;;;;;;;6.70;3.90;;;;;;;14.69;88.98;99957.04;78834;280;3028715;-72
2023/07/27 00:22:11;;;;;;;5.80;4.10;;;;;;;14.66;88.94;99958.30;79580;280;3011453;-72
2023/07/27 00:24:47;;;;;;;6.30;4.60;;;;;;;14.65;89.35;99960.97;78757;280;3027613;-72
2023/07/27 00:27:23;;;;;;;6.70;4.40;;;;;;;14.68;89.54;99967.85;79554;280;3012499;-73
2023/07/27 00:29:59;;;;;;;6.90;5.50;;;;;;;14.68;89.49;99973.48;79629;280;3012779;-72
2023/07/27 00:32:35;;;;;;;6.70;5.20;;;;;;;14.67;89.44;99973.54;79571;280;3012844;-71
2023/07/27 00:35:12;;;;;;;6.30;5.20;;;;;;;14.66;89.63;99981.11;79588;280;3011599;-72
2023/07/27 00:37:47;;;;;;;3.70;3.40;;;;;;;14.65;89.78;99983.45;78832;280;3027456;-72
2023/07/27 00:40:25;;;;;;;5.00;2.90;;;;;;;14.66;90.11;99984.27;79605;280;3011587;-72
2023/07/27 00:43:00;;;;;;;3.80;2.50;;;;;;;14.66;89.94;99976.71;78807;280;3028188;-72
2023/07/27 00:45:36;;;;;;;7.10;3.20;;;;;;;14.65;89.63;99979.76;79604;280;3011357;-73
2023/07/27 00:48:13;;;;;;;4.60;2.70;;;;;;;14.63;89.41;99984.50;79590;280;3011503;-73
2023/07/27 00:50:49;;;;;;;3.00;2.30;;;;;;;14.60;89.47;99985.20;79653;280;3013001;-73
2023/07/27 00:53:25;;;;;;;3.60;2.30;;;;;;;14.57;89.43;99990.08;79609;280;3013352;-72
2023/07/27 00:56:02;;;;;;;3.70;2.10;;;;;;;14.54;89.50;99985.75;78764;280;3026811;-72
2023/07/27 00:58:38;;;;;;;4.00;2.00;;;;;;;14.52;89.14;99980.05;79614;280;3011462;-73
2023/07/27 01:01:14;;;;;;;3.50;2.30;;;;;;;14.51;88.95;99984.17;79592;280;3011852;-74
2023/07/27 01:03:50;;;;;;;3.10;1.80;;;;;;;14.47;88.85;99990.86;79535;280;3012766;-74
2023/07/27 01:06:27;;;;;;;3.10;2.20;;;;;;;14.42;88.47;99994.51;79549;280;3011521;-74
2023/07/27 01:09:02;;;;;;;2.70;1.80;;;;;;;14.37;88.59;99993.58;78830;280;3027796;-72
2023/07/27 01:11:41;;;;;;;2.20;1.70;;;;;;;14.35;88.91;99985.27;78833;280;3028378;-73
2023/07/27 01:14:23;;;;;;;4.30;2.00;;;;;;;14.33;88.87;99977.96;78865;280;3027614;-73
2023/07/27 01:17:05;;;;;;;3.10;1.80;;;;;;;14.31;88.96;99981.25;78786;280;3029104;-72
2023/07/27 01:20:07;;;;;;;2.20;1.80;;;;;;;14.29;88.67;99980.52;78962;280;3026723;-72
2023/07/27 01:23:23;;;;;;;2.70;1.70;;;;;;;14.22;88.55;99975.66;78933;284;3027558;-71
2023/07/27 01:26:08;;;;;;;2.50;2.20;;;;;;;14.16;88.91;99978.29;78747;278;3027457;-74
2023/07/27 01:29:02;;;;;;;3.80;2.00;;;;;;;14.15;89.22;99980.84;78861;280;3027186;-71
2023/07/27 01:31:41;;;;;;;2.20;1.80;;;;;;;14.13;89.30;99980.21;78873;280;3027109;-69
2023/07/27 01:34:20;;;;;;;4.30;2.00;;;;;;;14.13;89.25;99979.55;78867;280;3027985;-74
2023/07/27 01:37:00;;;;;;;3.60;1.80;;;;;;;14.13;89.32;99982.84;78872;280;3026841;-74
2023/07/27 01:39:37;;;;;;;3.90;2.20;;;;;;;14.13;89.45;99988.16;78777;280;3027042;-73
2023/07/27 01:42:15;;;;;;;3.50;2.00;;;;;;;14.13;89.59;99988.83;78897;280;3028454;-73
2023/07/27 01:44:53;;;;;;;4.00;2.20;;;;;;;14.13;89.61;99989.52;78835;280;3027638;-72
2023/07/27 01:47:29;;;;;;;6.30;2.10;;;;;;;14.14;89.72;99985.27;79620;280;3013052;-74
2023/07/27 01:50:06;;;;;;;3.10;2.40;;;;;;;14.12;89.53;99980.64;78902;280;3028024;-73
2023/07/27 01:52:41;;;;;;;3.90;2.40;;;;;;;14.09;89.52;99977.30;78881;280;3027725;-74
2023/07/27 01:55:18;;;;;;;2.70;2.30;;;;;;;14.10;89.76;99974.13;79588;280;3011473;-74
2023/07/27 01:57:59;;;;;;;2.30;2.10;;;;;;;14.12;89.78;99967.67;78827;272;3027511;-72
2023/07/27 02:00:35;;;;;;;2.60;2.30;;;;;;;14.15;90.00;99968.72;78769;280;3028280;-70
2023/07/27 02:03:10;;;;;;;3.40;2.70;;;;;;;14.17;90.06;99977.02;78823;280;3029732;-71
2023/07/27 02:05:46;;;;;;;4.20;2.60;;;;;;;14.18;90.04;99980.11;79590;280;3011413;-72
2023/07/27 02:08:22;;;;;;;4.00;2.80;;;;;;;14.19;90.10;99987.59;79581;280;3011444;-73
2023/07/27 02:11:01;;;;;;;2.70;2.10;;;;;;;14.21;89.91;99985.74;79602;280;3011314;-74
2023/07/27 02:13:39;;;;;;;2.80;2.00;;;;;;;14.21;89.88;99989.56;78850;280;3027679;-72
2023/07/27 02:16:24;;;;;;;6.40;3.30;;;;;;;14.19;89.71;99980.41;78923;280;3027233;-74
2023/07/27 02:19:00;;;;;;;3.40;2.40;;;;;;;14.18;89.85;99970.79;78835;280;3027304;-75
2023/07/27 02:21:35;;;;;;;3.10;1.90;;;;;;;14.18;89.81;99961.33;78903;280;3027927;-75
2023/07/27 02:24:11;;;;;;;3.10;1.90;;;;;;;14.19;89.94;99957.75;79588;280;3013181;-72
2023/07/27 02:26:48;;;;;;;1.90;1.70;;;;;;;14.20;89.96;99960.52;79579;280;3013274;-73
2023/07/27 02:29:24;;;;;;;3.80;1.50;;;;;;;14.20;89.47;99958.62;79608;280;3011229;-74
2023/07/27 02:31:59;;;;;;;3.70;1.80;;;;;;;14.16;89.32;99950.61;78825;272;3027946;-74
2023/07/27 02:34:36;;;;;;;4.50;2.20;;;;;;;14.12;89.12;99951.72;79630;280;3011290;-72
2023/07/27 02:37:11;;;;;;;6.30;3.10;;;;;;;14.05;89.11;99950.55;78935;280;3027863;-71
2023/07/27 02:39:46;;;;;;;6.10;2.80;;;;;;;14.04;89.41;99957.30;78827;280;3027051;-74
2023/07/27 02:42:22;;;;;;;3.10;2.00;;;;;;;14.02;89.42;99961.25;79600;280;3011470;-74
2023/07/27 02:44:59;;;;;;;3.80;1.70;;;;;;;13.98;88.94;99963.92;79572;280;3011429;-73
2023/07/27 02:47:35;;;;;;;1.70;1.50;;;;;;;13.93;88.65;99963.84;79560;280;3011577;-73
2023/07/27 02:50:12;;;;;;;4.50;1.30;;;;;;;13.86;88.51;99961.45;79572;280;3011434;-74
2023/07/27 02:52:49;;;;;;;2.00;1.40;;;;;;;13.80;88.42;99962.71;78861;280;3027025;-72
2023/07/27 02:55:24;;;;;;;2.00;1.40;;;;;;;13.76;88.63;99966.81;78803;280;3028542;-74
2023/07/27 02:58:03;;;;;;;2.30;1.30;;;;;;;13.69;88.20;99974.76;79555;280;3011504;-73
2023/07/27 03:00:36;;;;;;;;;;;;;;;13.65;88.60;99979.69;78830;280;3028351;-74
2023/07/27 03:03:10;;;;;;;1.70;1.60;;;;;;;13.57;88.90;99983.67;80104;280;3011468;-74
2023/07/27 03:05:46;;;;;;;1.50;1.40;;;;;;;13.51;88.93;99981.20;78841;280;3028771;-70
2023/07/27 03:08:21;;;;;;;2.60;1.40;;;;;;;13.48;89.11;99985.75;78859;280;3028051;-72
2023/07/27 03:10:59;;;;;;;2.80;1.60;;;;;;;13.46;89.42;99985.14;79609;280;3011454;-74
2023/07/27 03:13:35;;;;;;;2.50;1.40;;;;;;;13.47;89.66;99989.00;78856;280;3026844;-72
2023/07/27 03:16:10;;;;;;;1.60;1.50;;;;;;;13.47;89.74;99991.08;78807;280;3027153;-72
2023/07/27 03:18:46;;;;;;;3.20;1.30;;;;;;;13.46;89.74;99996.71;79559;280;3011482;-72
2023/07/27 03:21:22;;;;;;;2.90;1.30;;;;;;;13.46;89.79;99994.29;79535;280;3011399;-73
2023/07/27 03:23:58;;;;;;;4.00;1.80;;;;;;;13.48;90.32;99994.00;79560;280;3011451;-73
2023/07/27 03:26:34;;;;;;;2.10;1.40;;;;;;;13.47;89.95;99994.89;79570;272;3011562;-73
2023/07/27 03:29:11;;;;;;;2.10;1.70;;;;;;;13.46;89.94;99995.86;79580;280;3011544;-72
2023/07/27 03:31:47;;;;;;;1.90;1.70;;;;;;;13.46;90.13;100003.56;79573;280;3011496;-72
2023/07/27 03:34:23;;;;;;;2.70;1.50;;;;;;;13.47;90.35;100009.11;79571;280;3011449;-72
2023/07/27 03:36:59;;;;;;;2.00;1.40;;;;;;;13.49;90.44;100012.33;79593;280;3012612;-72
2023/07/27 03:39:35;;;;;;;3.50;1.80;;;;;;;13.51;90.86;100012.71;79565;280;3011418;-72
2023/07/27 03:42:14;;;;;;;4.10;2.40;;;;;;;13.58;91.03;100013.41;79538;280;3011525;-70
2023/07/27 03:44:49;;;;;;;3.10;2.30;;;;;;;13.61;90.85;100013.03;78834;280;3028532;-72
2023/07/27 03:47:25;;;;;;;2.60;1.70;;;;;;;13.63;91.00;100013.97;78835;280;3027213;-70
2023/07/27 03:50:02;;;;;;;2.90;2.10;;;;;;;13.66;91.16;100015.23;79583;280;3011387;-72
2023/07/27 03:52:38;;;;;;;2.60;1.60;;;;;;;13.69;91.26;100020.31;78824;280;3027430;-72
2023/07/27 03:55:13;;;;;;;2.90;2.00;;;;;;;13.75;91.51;100018.06;78860;280;3027108;-72
2023/07/27 03:57:50;;;;;;;4.30;1.70;;;;;;;13.80;91.61;100016.02;79579;280;3011445;-74
2023/07/27 04:00:25;;;;;;;3.80;2.00;;;;;;;13.84;91.40;100014.02;78812;280;3026585;-72
2023/07/27 04:03:01;;;;;;;4.40;2.00;;;;;;;13.86;91.20;100012.15;78822;280;3030837;-72
2023/07/27 04:05:37;;;;;;;2.60;2.00;;;;;;;13.89;91.36;100011.80;79503;274;3012685;-70
2023/07/27 04:08:13;;;;;;;2.50;2.20;;;;;;;13.94;91.33;100015.38;79489;280;3011924;-72
2023/07/27 04:10:50;;;;;;;3.20;2.60;;;;;;;13.98;91.56;100015.66;79520;280;3011582;-73
2023/07/27 04:13:25;;;;;;;2.90;2.40;;;;;;;14.02;91.50;100014.92;78744;280;3026821;-73
2023/07/27 04:16:04;;;;;;;2.60;2.40;;;;;;;14.06;91.70;100019.59;78750;280;3026787;-73
2023/07/27 04:18:39;;;;;;;4.60;2.70;;;;;;;14.13;91.84;100022.13;78768;269;3027053;-72
2023/07/27 04:21:15;;;;;;;4.20;2.60;;;;;;;14.22;92.11;100022.72;79551;280;3011438;-70
2023/07/27 04:23:51;;;;;;;3.10;2.80;;;;;;;14.30;92.14;100025.19;79519;280;3011460;-70
2023/07/27 04:26:28;;;;;;;3.80;3.40;;;;;;;14.41;92.67;100025.59;79427;282;3013103;-71
2023/07/27 04:29:03;;;;;;;4.70;3.10;;;;;;;14.54;92.53;100025.06;78877;280;3027045;-72
2023/07/27 04:31:39;;;;;;;4.20;2.80;;;;;;;14.72;92.87;100024.67;78796;272;3027810;-71
2023/07/27 04:34:14;;;;;;;5.70;4.00;;;;;;;14.86;92.42;100020.98;78873;280;3027462;-72
2023/07/27 04:36:51;;;;;;;3.20;2.90;;;;;;;15.00;92.74;100019.41;79588;280;3011466;-71
2023/07/27 04:39:29;;;;;;;4.10;2.90;;;;;;;15.15;92.07;100021.29;78852;280;3027467;-74
2023/07/27 04:42:05;;;;;;;4.60;3.20;;;;;;;15.22;91.06;100010.84;78835;280;3026937;-74
2023/07/27 04:44:42;;;;;;;3.50;3.10;;;;;;;15.33;91.34;100011.57;78819;280;3028720;-72
2023/07/27 04:47:18;;;;;;;3.40;3.10;;;;;;;15.50;92.41;100008.89;78828;280;3027335;-75
2023/07/27 04:49:53;;;;;;;3.90;3.10;;;;;;;15.69;92.13;100006.63;78792;280;3027470;-72
2023/07/27 04:52:30;;;;;;;5.80;3.70;;;;;;;15.83;91.27;100006.24;79509;280;3012627;-70
2023/07/27 04:55:07;;;;;;;5.30;3.20;;;;;;;15.94;91.17;100008.18;78818;280;3027244;-73
2023/07/27 04:57:42;;;;;;;4.50;3.40;;;;;;;16.10;91.20;100004.77;78822;278;3027536;-72
2023/07/27 05:00:22;;;;;;;5.40;3.80;;;;;;;16.37;91.17;100005.51;79597;280;3011529;-73
2023/07/27 05:03:00;;;;;;;5.60;4.10;;;;;;;16.57;90.74;100010.64;78829;280;3027497;-75
2023/07/27 05:05:35;;;;;;;6.40;4.20;;;;;;;17.04;90.99;100008.58;78668;280;3026607;-72
2023/07/27 05:08:11;;;;;;;4.80;4.20;;;;;;;17.59;90.03;100006.77;79550;280;3011573;-72
2023/07/27 05:10:47;;;;;;;6.70;4.70;;;;;;;18.05;88.40;100000.73;79540;280;3011567;-72
2023/07/27 05:13:23;;;;;;;7.10;4.60;;;;;;;18.23;86.68;100006.30;78814;280;3026688;-72
2023/07/27 05:16:03;;;;;;;6.10;5.10;;;;;;;18.54;86.00;100006.38;78845;280;3026748;-72
2023/07/27 05:18:41;;;;;;;8.00;4.70;;;;;;;18.82;84.30;100003.38;77200;280;3029063;-73
2023/07/27 05:21:17;;;;;;;5.60;4.60;;;;;;;19.29;84.56;100000.70;78665;280;3027090;-71
2023/07/27 05:23:55;;;;;;;6.00;5.40;;;;;;;19.75;81.40;99998.03;78886;280;3028043;-75
2023/07/27 05:26:33;;;;;;;9.50;5.70;;;;;;;19.79;79.50;99996.06;78843;280;3026795;-75
2023/07/27 05:29:09;;;;;;;5.80;4.80;;;;;;;20.02;79.10;99994.22;78753;280;3026991;-73
2023/07/27 05:31:46;;;;;;;5.70;5.20;;;;;;;20.37;77.96;99994.27;78764;280;3028753;-73
2023/07/27 05:34:22;;;;;;;7.20;5.00;;;;;;;20.60;75.77;99987.00;78851;280;3027755;-73
2023/07/27 05:36:58;;;;;;;5.50;4.60;;;;;;;20.79;74.61;99985.21;78827;280;3027285;-75
2023/07/27 05:39:34;;;;;;;7.40;4.70;;;;;;;20.88;73.77;99983.35;78820;280;3026598;-72
2023/07/27 05:42:10;;;;;;;5.50;4.60;;;;;;;21.17;73.41;99989.84;78835;280;3027469;-72
2023/07/27 05:44:46;;;;;;;9.60;5.20;;;;;;;21.71;72.70;99988.41;78847;280;3027080;-72
2023/07/27 05:47:22;;;;;;;4.60;4.00;;;;;;;22.30;70.27;99991.02;79554;280;3011448;-72
2023/07/27 05:49:58;;;;;;;5.60;3.50;;;;;;;22.85;68.71;99986.67;78877;280;3028421;-71
2023/07/27 05:52:34;;;;;;;4.60;3.40;;;;;;;23.48;66.17;99985.39;78847;280;3027160;-71
2023/07/27 05:55:12;;;;;;;3.70;2.90;;;;;;;24.14;63.19;99984.00;78873;280;3027020;-71
2023/07/27 05:57:47;;;;;;;4.50;2.70;;;;;;;24.76;61.63;99986.61;78842;280;3028850;-72
2023/07/27 06:00:23;;;;;;;4.40;3.00;;;;;;;25.30;58.88;99990.83;78854;325;3028334;-71
2023/07/27 06:02:58;;;;;;;5.80;2.70;;;;;;;25.76;57.08;99991.39;78829;280;3028076;-71
2023/07/27 06:05:35;;;;;;;3.30;2.40;;;;;;;26.21;55.67;99992.57;78862;280;3027271;-72
2023/07/27 06:08:11;;;;;;;4.20;2.50;;;;;;;26.54;54.34;99994.31;78835;280;3027082;-72
2023/07/27 06:10:47;;;;;;;3.80;2.60;;;;;;;26.87;52.39;99993.35;78855;280;3027162;-73
2023/07/27 06:13:23;;;;;;;5.20;2.50;;;;;;;27.09;51.56;99993.79;78832;280;3027427;-73
2023/07/27 06:15:59;;;;;;;3.40;2.00;;;;;;;27.41;50.41;99997.58;78830;280;3027067;-74
2023/07/27 06:18:35;;;;;;;4.10;1.80;;;;;;;27.66;48.37;99993.14;78798;280;3027266;-75
2023/07/27 06:21:11;;;;;;;3.50;2.20;;;;;;;27.83;47.68;99996.16;78838;280;3030128;-75
2023/07/27 06:23:49;;;;;;;5.20;2.20;;;;;;;27.87;47.14;99994.84;78926;280;3026591;-73
2023/07/27 06:26:25;;;;;;;4.50;2.30;;;;;;;27.70;45.68;99994.94;78867;280;3027324;-72
2023/07/27 06:29:07;;;;;;;3.00;2.30;;;;;;;27.31;46.27;100002.74;78884;280;3027962;-73
2023/07/27 06:31:43;;;;;;;6.30;2.70;;;;;;;27.23;47.23;100000.94;78869;280;3027926;-73
2023/07/27 06:34:19;;;;;;;2.80;2.20;;;;;;;27.51;47.44;100007.17;78902;280;3026970;-73
2023/07/27 06:36:56;;;;;;;3.50;2.30;;;;;;;27.89;47.67;100005.17;78871;280;3026661;-73
2023/07/27 06:39:35;;;;;;;3.80;2.40;;;;;;;28.22;46.49;100005.85;78891;280;3027070;-72
2023/07/27 06:42:12;;;;;;;3.40;2.30;;;;;;;28.00;45.72;100005.70;78742;282;3027045;-72
2023/07/27 06:44:47;;;;;;;4.00;2.60;;;;;;;27.73;46.46;100004.15;78902;280;3029060;-73
2023/07/27 06:47:22;;;;;;;7.30;2.50;;;;;;;27.93;46.09;100003.42;78765;282;3027823;-74
2023/07/27 06:49:58;;;;;;;3.90;2.60;;;;;;;28.42;44.85;100000.65;79631;280;3013275;-71
2023/07/27 06:52:34;;;;;;;3.20;2.50;;;;;;;28.78;43.65;100002.41;78869;280;3027556;-72
2023/07/27 06:55:11;;;;;;;3.10;2.20;;;;;;;28.66;43.99;99999.91;79672;280;3013302;-72
2023/07/27 06:57:47;;;;;;;2.90;2.30;;;;;;;28.39;44.21;100000.14;78910;280;3026953;-73
2023/07/27 07:00:22;;;;;;;4.80;2.20;;;;;;;28.17;44.69;100002.27;78777;280;3027520;-74
2023/07/27 07:02:58;;;;;;;3.90;2.30;;;;;;;27.88;44.86;100000.58;78927;272;3027030;-74
2023/07/27 07:05:36;;;;;;;3.10;2.20;;;;;;;27.69;45.62;100002.23;78904;280;3027226;-74
2023/07/27 07:08:11;;;;;;;4.30;2.70;;;;;;;27.90;45.01;100001.77;78757;280;3027425;-74
2023/07/27 07:10:47;;;;;;;3.40;2.40;;;;;;;27.88;43.98;99999.20;79629;280;3011536;-72
2023/07/27 07:13:23;;;;;;;4.00;2.80;;;;;;;27.47;44.62;100002.12;78881;280;3027667;-72
2023/07/27 07:16:01;;;;;;;3.90;2.40;;;;;;;27.14;44.91;100010.30;78834;280;3028209;-74
2023/07/27 07:18:36;;;;;;;5.10;2.70;;;;;;;27.48;45.62;100010.77;78896;280;3027639;-73
2023/07/27 07:21:12;;;;;;;4.30;2.40;;;;;;;28.22;45.19;100010.58;78849;280;3027683;-73
2023/07/27 07:23:48;;;;;;;3.40;2.20;;;;;;;28.87;43.55;100013.96;78845;280;3028585;-73
2023/07/27 07:26:24;;;;;;;2.80;2.10;;;;;;;29.06;43.16;100016.74;78860;280;3028495;-73
2023/07/27 07:28:59;;;;;;;3.00;2.10;;;;;;;28.96;42.22;100019.57;78864;280;3028193;-74
2023/07/27 07:31:34;;;;;;;3.20;2.50;;;;;;;28.22;42.64;100022.73;78794;280;3028206;-74
2023/07/27 07:34:11;;;;;;;2.80;2.30;;;;;;;28.43;43.84;100019.23;79565;280;3011425;-74
2023/07/27 07:36:46;;;;;;;3.00;2.10;;;;;;;29.08;42.40;100014.90;78865;280;3027492;-74
2023/07/27 07:39:25;;;;;;;2.70;2.20;;;;;;;29.30;41.29;100015.70;78828;280;3027093;-74
2023/07/27 07:42:01;;;;;;;2.80;1.90;;;;;;;29.39;41.79;100017.87;78822;280;3026733;-73
2023/07/27 07:44:36;;;;;;;3.40;2.00;;;;;;;29.69;40.92;100016.84;78843;280;3027118;-72
2023/07/27 07:47:12;;;;;;;3.20;2.20;;;;;;;30.13;40.73;100017.25;78839;280;3027911;-73
2023/07/27 07:49:48;;;;;;;2.40;2.20;;;;;;;30.63;39.26;100014.67;79578;280;3011437;-72
2023/07/27 07:52:26;;;;;;;3.30;1.90;;;;;;;30.36;39.00;100018.50;79581;280;3011576;-72
2023/07/27 07:55:07;;;;;;;3.00;2.20;;;;;;;30.23;39.54;100011.51;78837;280;3027871;-72
2023/07/27 07:57:42;;;;;;;2.80;2.10;;;;;;;30.65;39.24;100012.48;78792;280;3027112;-72
2023/07/27 08:00:19;;;;;;;3.50;2.10;;;;;;;30.44;37.40;100016.10;78837;280;3028032;-72
2023/07/27 08:02:55;;;;;;;3.00;1.80;;;;;;;29.62;38.43;100021.42;78829;280;3028373;-72
2023/07/27 08:05:30;;;;;;;2.50;1.90;;;;;;;28.87;39.37;100026.16;78826;280;3027587;-72
2023/07/27 08:08:07;;;;;;;3.30;2.10;;;;;;;29.11;40.47;100026.31;79565;280;3011511;-72
2023/07/27 08:10:43;;;;;;;2.60;1.90;;;;;;;29.61;38.47;100023.30;78830;280;3028021;-73
2023/07/27 08:13:18;;;;;;;2.70;2.00;;;;;;;30.12;39.24;100022.29;78862;280;3027881;-73
2023/07/27 08:15:57;;;;;;;7.90;2.00;;;;;;;30.62;39.00;100017.00;78858;280;3028497;-73
2023/07/27 08:18:33;;;;;;;4.30;1.60;;;;;;;30.63;37.96;100018.88;78850;280;3028648;-73
2023/07/27 08:21:09;;;;;;;3.30;1.70;;;;;;;30.76;36.63;100014.79;78873;280;3028809;-72
2023/07/27 08:23:44;;;;;;;4.40;1.90;;;;;;;31.04;34.96;100013.15;78839;280;3026841;-73
2023/07/27 08:26:21;;;;;;;2.40;1.90;;;;;;;31.46;35.62;100012.92;79590;280;3013275;-75
2023/07/27 08:28:57;;;;;;;5.20;2.20;;;;;;;31.86;35.71;100008.50;79621;280;3011522;-74
2023/07/27 08:31:33;;;;;;;2.10;1.60;;;;;;;32.19;35.77;100002.45;79595;280;3012699;-74
2023/07/27 08:34:09;;;;;;;2.70;1.60;;;;;;;32.52;34.22;100000.98;79617;280;3011560;-74
2023/07/27 08:36:47;;;;;;;2.10;1.50;;;;;;;32.70;33.13;100001.58;79594;280;3011349;-73
2023/07/27 08:39:22;;;;;;;3.80;2.10;;;;;;;32.84;33.88;100005.80;78877;280;3028250;-73
2023/07/27 08:41:58;;;;;;;1.70;1.50;;;;;;;32.66;32.63;100006.72;78740;280;3027559;-73
2023/07/27 08:44:34;;;;;;;3.00;1.30;;;;;;;31.82;33.18;100003.20;78842;280;3028106;-73
2023/07/27 08:47:10;;;;;;;2.10;1.70;;;;;;;31.64;34.76;100005.98;79489;280;3011560;-73
2023/07/27 08:49:46;;;;;;;3.00;1.70;;;;;;;32.01;34.18;100000.75;78819;280;3027971;-73
2023/07/27 08:52:22;;;;;;;2.70;1.60;;;;;;;32.44;33.68;100003.94;78831;280;3026642;-73
2023/07/27 08:54:57;;;;;;;2.40;1.80;;;;;;;32.81;33.68;100003.80;78856;280;3028657;-74
2023/07/27 08:57:33;;;;;;;4.10;1.50;;;;;;;33.04;32.60;100006.80;79613;280;3011567;-75
2023/07/27 09:00:12;;;;;;;12.10;4.10;;;;;;;33.16;31.65;100002.60;78893;280;3026918;-73
2023/07/27 09:02:48;;;;;;;1.60;1.50;;;;;;;32.67;30.54;100001.45;78722;282;3028386;-73
2023/07/27 09:05:24;;;;;;;3.10;1.40;;;;;;;31.92;30.30;100003.91;78883;280;3027259;-73
2023/07/27 09:08:01;;;;;;;3.80;1.60;;;;;;;31.10;32.38;100001.77;78801;280;3027754;-74
2023/07/27 09:10:38;;;;;;;2.90;1.30;;;;;;;30.87;33.90;100000.14;78862;280;3027355;-72
2023/07/27 09:13:14;;;;;;;2.70;1.20;;;;;;;31.11;33.52;99998.73;78841;280;3027774;-72
2023/07/27 09:15:50;;;;;;;2.00;1.50;;;;;;;31.63;33.69;99993.95;79599;280;3011401;-76
2023/07/27 09:18:26;;;;;;;1.50;1.10;;;;;;;32.18;33.42;99991.38;79594;280;3012722;-75
2023/07/27 09:21:06;;;;;;;3.30;1.50;;;;;;;32.26;32.28;99994.59;78876;280;3026899;-74
2023/07/27 09:23:41;;;;;;;3.30;1.50;;;;;;;31.87;32.35;99992.69;78748;282;3026827;-74
2023/07/27 09:26:17;;;;;;;1.50;1.20;;;;;;;31.21;32.39;99996.61;78888;280;3028346;-75
2023/07/27 09:28:53;;;;;;;3.70;1.40;;;;;;;30.41;32.35;99995.92;78801;270;3028004;-74
2023/07/27 09:31:29;;;;;;;3.20;1.40;;;;;;;29.58;32.87;99996.41;78778;280;3027782;-74
2023/07/27 09:34:06;;;;;;;2.60;1.70;;;;;;;28.82;34.56;100001.59;78922;269;3030366;-73
2023/07/27 09:36:41;;;;;;;2.70;1.20;;;;;;;28.12;35.03;99995.42;78883;280;3028716;-75
2023/07/27 09:39:17;;;;;;;2.10;1.40;;;;;;;27.88;36.49;99995.48;78896;280;3028086;-74
2023/07/27 09:41:53;;;;;;;7.40;2.10;;;;;;;27.94;37.47;99994.83;78781;282;3029292;-75
2023/07/27 09:44:29;;;;;;;3.10;1.90;;;;;;;28.07;38.26;99991.89;78866;280;3028487;-73
2023/07/27 09:47:05;;;;;;;3.50;1.60;;;;;;;28.17;38.33;99992.92;79698;280;3012959;-73
2023/07/27 09:49:41;;;;;;;3.00;1.30;;;;;;;28.18;38.69;99990.18;78895;280;3027815;-73
2023/07/27 09:52:17;;;;;;;8.60;2.10;;;;;;;28.16;38.16;99991.17;78893;280;3026616;-72
2023/07/27 09:54:53;;;;;;;2.40;1.50;;;;;;;28.11;37.59;99993.24;78874;280;3026707;-72
2023/07/27 09:57:29;;;;;;;4.00;1.90;;;;;;;28.05;37.33;99991.64;78855;280;3028040;-73
2023/07/27 10:00:09;;;;;;;3.30;1.40;;;;;;;27.93;37.44;99985.61;78821;280;3026680;-75
2023/07/27 10:02:46;;;;;;;2.70;1.50;;;;;;;27.77;37.47;99988.20;78740;280;3028422;-75
2023/07/27 10:05:22;;;;;;;2.30;1.50;;;;;;;27.60;37.07;99985.76;78891;280;3028268;-72
2023/07/27 10:07:58;;;;;;;1.90;1.40;;;;;;;27.57;37.92;99981.23;78883;280;3027766;-72
2023/07/27 10:10:43;;;;;;;3.20;1.50;;;;;;;27.54;37.20;99978.36;79032;280;3026722;-73
2023/07/27 10:13:39;;;;;;;2.30;1.50;;;;;;;27.55;37.69;99978.09;79023;280;3026942;-73
2023/07/27 10:16:22;;;;;;;1.60;1.30;;;;;;;27.53;36.73;99974.70;79051;280;3027814;-73
2023/07/27 10:18:57;;;;;;;2.00;1.30;;;;;;;27.55;36.83;99972.21;79004;280;3026917;-72
2023/07/27 10:21:36;;;;;;;2.80;1.50;;;;;;;27.48;37.27;99979.06;78758;280;3026974;-73
2023/07/27 10:24:11;;;;;;;1.50;1.30;;;;;;;27.12;36.73;99982.43;78734;280;3027251;-73
2023/07/27 10:26:54;;;;;;;1.90;1.60;;;;;;;26.85;37.18;99982.55;79604;280;3011510;-73
2023/07/27 10:29:30;;;;;;;3.30;1.50;;;;;;;26.84;37.86;99977.29;78857;280;3027287;-73
2023/07/27 10:32:08;;;;;;;2.00;1.50;;;;;;;26.96;38.16;99974.63;78725;280;3027910;-73
2023/07/27 10:34:44;;;;;;;3.20;1.50;;;;;;;27.05;37.31;99971.64;78847;280;3027139;-74
2023/07/27 10:37:19;;;;;;;2.00;1.30;;;;;;;27.11;38.10;99972.83;78833;280;3027181;-74
2023/07/27 10:39:56;;;;;;;2.80;1.50;;;;;;;27.16;37.07;99969.98;79590;272;3011499;-74
2023/07/27 10:42:31;;;;;;;2.20;1.10;;;;;;;27.14;36.46;99965.98;78817;272;3028179;-73
2023/07/27 10:45:10;;;;;;;1.60;1.40;;;;;;;27.09;36.52;99962.75;79616;280;3011673;-73
2023/07/27 10:47:55;;;;;;;4.20;1.70;;;;;;;27.04;36.08;99961.55;78868;280;3026767;-73
2023/07/27 10:50:31;;;;;;;2.70;1.50;;;;;;;27.00;36.04;99955.28;78821;280;3027443;-73
2023/07/27 10:53:07;;;;;;;5.00;2.30;;;;;;;27.05;36.07;99955.13;79609;280;3011541;-74
2023/07/27 10:55:43;;;;;;;3.20;2.20;;;;;;;27.07;35.71;99952.94;79567;280;3011515;-74
2023/07/27 10:58:20;;;;;;;2.20;1.80;;;;;;;27.04;36.54;99947.94;78822;280;3026690;-73
2023/07/27 11:00:56;;;;;;;3.00;1.70;;;;;;;27.03;36.08;99948.08;78870;280;3029799;-74
2023/07/27 11:03:33;;;;;;;2.40;1.20;;;;;;;27.01;36.39;99946.29;79573;280;3012750;-74
2023/07/27 11:06:10;;;;;;;3.20;1.30;;;;;;;26.97;35.02;99945.35;78723;281;3026982;-73
2023/07/27 11:08:45;;;;;;;3.20;1.20;;;;;;;26.93;35.80;99939.20;78877;280;3027106;-72
2023/07/27 11:11:24;;;;;;;5.00;2.20;;;;;;;26.92;35.26;99936.96;78746;280;3027320;-72
2023/07/27 11:14:10;;;;;;;1.10;1.00;;;;;;;26.85;34.99;99935.57;78918;280;3026954;-75
2023/07/27 11:16:46;;;;;;;4.40;1.40;;;;;;;26.70;34.81;99930.63;78873;280;3027371;-75
2023/07/27 11:19:24;;;;;;;3.50;1.10;;;;;;;26.31;35.16;99937.65;78893;280;3026741;-74
2023/07/27 11:22:00;;;;;;;6.50;2.70;;;;;;;26.07;35.61;99937.30;78875;280;3027886;-73
2023/07/27 11:24:42;;;;;;;7.80;3.30;;;;;;;26.11;36.49;99936.19;79625;280;3011504;-74
2023/07/27 11:27:21;;;;;;;3.20;1.50;;;;;;;26.21;35.42;99930.55;78804;280;3027515;-74
2023/07/27 11:29:59;;;;;;;1.50;1.00;;;;;;;26.22;35.65;99924.15;78914;280;3027425;-75
2023/07/27 11:32:37;;;;;;;2.20;1.30;;;;;;;26.22;35.24;99922.53;78895;280;3027254;-75
2023/07/27 11:35:13;;;;;;;1.60;1.00;;;;;;;26.17;34.35;99917.04;78881;280;3027696;-76
2023/07/27 11:37:49;;;;;;;1.20;0.80;;;;;;;26.17;34.84;99915.02;78849;269;3027307;-74
2023/07/27 11:40:26;;;;;;;1.10;1.00;;;;;;;26.21;35.07;99911.27;79473;268;3011438;-74
2023/07/27 11:43:05;;;;;;;1.20;1.00;;;;;;;26.27;35.73;99918.81;78838;280;3026838;-74
2023/07/27 11:45:42;;;;;;;2.10;1.00;;;;;;;26.33;35.49;99907.08;78853;280;3027880;-74
2023/07/27 11:48:19;;;;;;;1.50;1.10;;;;;;;26.40;35.28;99910.23;78834;280;3028681;-74
2023/07/27 11:50:56;;;;;;;2.10;1.10;;;;;;;26.45;35.15;99911.85;78841;280;3028125;-74
2023/07/27 11:53:32;;;;;;;2.20;1.00;;;;;;;26.44;35.19;99905.17;78818;280;3028087;-74
2023/07/27 11:56:14;;;;;;;1.90;1.10;;;;;;;26.31;35.23;99907.13;78831;269;3027246;-76
2023/07/27 11:58:50;;;;;;;1.40;1.00;;;;;;;25.98;34.51;99903.48;78728;282;3026546;-74
2023/07/27 12:01:25;;;;;;;2.00;1.10;;;;;;;25.75;35.13;99904.33;78819;280;3027602;-75
2023/07/27 12:04:01;;;;;;;1.60;1.00;;;;;;;25.71;35.49;99899.38;78842;280;3028175;-74
2023/07/27 12:06:38;;;;;;;1.20;0.90;;;;;;;25.62;35.79;99896.66;79500;282;3013292;-74